Taoxian Airport
ZYTX : now visible

Airfield :











YOU CAN JOIN US ON...

 
LOGIN :

Register | Disclaimer

   EN    FR    IT 

 









Legend :    VFR   Marginal VFR   IFR   Intensive IFR   Very Intensive IFR
Visi :
Ceiling :
>= 8 km
>= 3000ft
5 to 8 km
1000 to 3000 ft
1500m to 5 km
500 to 1000 ft
800 to 1500m
200 to 500 ft
< 800m
< 200 ft
Symbols :   Thunderstorms  Fog  Heavy snow  Heavy precipitations  Wind > 20 kt






- Airport Elevation : 198 ft
- IATA code : SHE


ZYTX - Taoxian

CURRENT METAR :
  • 190200Z 29003MPS 7000 NSC M06/M11 Q1019 NOSIG

EXPIRED METARs :
  • 190130Z 30003MPS 7000 NSC M06/M12 Q1019 NOSIG
  • 190100Z 30003MPS 7000 NSC M06/M11 Q1019 NOSIG
  • 190030Z 30003MPS 8000 NSC M07/M11 Q1019 NOSIG
  • 190000Z 28002MPS 8000 NSC M10/M14 Q1018 NOSIG
  • 182330Z VRB01MPS 8000 NSC M08/M12 Q1018 NOSIG

TAF AMD TAF ZYTX
Valid from the 18 at 18:00 until the 19 at 18:00 UTC


182215Z 1818/1918 29003MPS 4000 FU NSC TXM04/1906Z TNM14/1918Z



MET'MAP, your aeronautical weather chart ! - Copyright ORBIFLY December 2007 - Disclaimer

ORBIFLY MET'MAP TEAM :

Programming & Development : Alexandra Zaïnal
Concept & original design : Baudouin d'Aumeries
Assistance for programming : Marc-Olivier Méhu
Technical & hardware support : Manuel Goepfert

Contact : metmap@orbifly.com




SOURCES & CREDITS :

   NOAA       Earth
Advisory